Time;durP1;ratioP1;P1;durP2;ratioP2;P2;SDS_P1;SDS_P2;PMS_P1;PMS_P2;Temp;Humidity;BMP_temperature;BMP_pressure;BME280_temperature;BME280_humidity;BME280_pressure;Samples;Min_cycle;Max_cycle;Signal;HPM_P1;HPM_P2
2022/05/09 00:02:16;;;;;;;;;19.00;18.25;;;;;;;;5059410;28;46060;-76
2022/05/09 00:04:41;;;;;;;;;17.75;16.25;;;;;;;;5058069;28;45493;-76
2022/05/09 00:07:06;;;;;;;;;13.75;13.75;;;;;;;;5058626;28;45364;-76
2022/05/09 00:09:32;;;;;;;;;15.50;15.00;;;;;;;;5058148;28;45563;-76
2022/05/09 00:11:57;;;;;;;;;15.75;14.25;;;;;;;;5036039;28;46824;-75
2022/05/09 00:14:23;;;;;;;;;17.00;16.00;;;;;;;;5060292;28;45644;-76
2022/05/09 00:16:50;;;;;;;;;19.25;18.00;;;;;;;;5058300;28;45570;-76
2022/05/09 00:19:18;;;;;;;;;15.00;14.75;;;;;;;;5058453;28;45417;-75
2022/05/09 00:21:43;;;;;;;;;18.00;17.00;;;;;;;;5057997;28;46138;-75
2022/05/09 00:24:12;;;;;;;;;17.75;17.00;;;;;;;;5055210;28;45365;-75
2022/05/09 00:26:38;;;;;;;;;14.75;12.00;;;;;;;;5057174;28;45299;-75
2022/05/09 00:29:03;;;;;;;;;16.75;14.25;;;;;;;;5059453;27;45512;-76
2022/05/09 00:31:29;;;;;;;;;16.75;15.50;;;;;;;;5057721;28;46055;-76
2022/05/09 00:33:55;;;;;;;;;17.50;17.00;;;;;;;;5058097;28;45485;-76
2022/05/09 00:36:21;;;;;;;;;14.00;12.00;;;;;;;;5056863;28;45392;-76
2022/05/09 00:38:46;;;;;;;;;16.50;16.25;;;;;;;;5055245;28;45596;-76
2022/05/09 00:43:56;;;;;;;;;13.25;13.25;;;;;;;;5058490;28;45905;-75
2022/05/09 00:46:22;;;;;;;;;13.75;13.75;;;;;;;;5057354;28;45396;-75
2022/05/09 01:13:13;;;;;;;;;7.25;6.25;;;;;;;;4076895;28;46414;-75
2022/05/09 01:15:39;;;;;;;;;7.00;7.00;;;;;;;;5056964;28;45546;-75
2022/05/09 01:18:06;;;;;;;;;8.25;8.25;;;;;;;;5053593;28;45403;-74
2022/05/09 01:20:31;;;;;;;;;11.50;7.00;;;;;;;;5057792;28;45757;-75
2022/05/09 01:22:57;;;;;;;;;8.50;7.00;;;;;;;;5058027;27;45428;-74
2022/05/09 01:25:23;;;;;;;;;6.50;6.25;;;;;;;;5057053;28;46316;-75
2022/05/09 01:27:49;;;;;;;;;9.25;9.00;;;;;;;;5057113;27;45284;-75
2022/05/09 01:30:34;;;;;;;;;9.00;8.00;;;;;;;;5054893;28;45316;-75
2022/05/09 01:33:11;;;;;;;;;8.25;7.25;;;;;;;;5037166;28;45622;-75
2022/05/09 01:35:50;;;;;;;;;7.50;7.25;;;;;;;;5056493;28;46211;-75
2022/05/09 01:38:20;;;;;;;;;10.00;8.50;;;;;;;;5058313;28;45339;-75
2022/05/09 01:40:45;;;;;;;;;8.50;7.50;;;;;;;;5057344;28;45665;-75
2022/05/09 01:43:11;;;;;;;;;9.00;8.25;;;;;;;;5057369;28;45651;-75
2022/05/09 01:45:36;;;;;;;;;7.25;6.75;;;;;;;;5056647;28;45669;-75
2022/05/09 01:50:45;;;;;;;;;7.00;7.00;;;;;;;;5054248;28;45341;-75
2022/05/09 01:53:11;;;;;;;;;11.50;8.25;;;;;;;;5058919;28;45501;-75
2022/05/09 01:55:36;;;;;;;;;7.00;7.00;;;;;;;;5057117;28;46776;-75
2022/05/09 01:58:01;;;;;;;;;8.00;7.50;;;;;;;;5057194;28;45578;-75
2022/05/09 02:00:28;;;;;;;;;6.50;6.00;;;;;;;;5056150;28;45367;-75
2022/05/09 02:02:53;;;;;;;;;9.75;9.75;;;;;;;;5053172;28;45510;-76
2022/05/09 02:05:18;;;;;;;;;9.50;8.50;;;;;;;;5058926;28;45485;-75
2022/05/09 02:07:45;;;;;;;;;8.00;6.25;;;;;;;;5038832;28;45570;-75
2022/05/09 02:10:11;;;;;;;;;8.75;8.00;;;;;;;;5057108;28;45310;-73
2022/05/09 02:12:36;;;;;;;;;8.50;5.75;;;;;;;;5056525;28;45458;-75
2022/05/09 02:15:01;;;;;;;;;6.00;6.00;;;;;;;;5052614;28;46155;-75
2022/05/09 02:17:29;;;;;;;;;6.75;4.75;;;;;;;;5058248;28;45323;-76
2022/05/09 02:19:55;;;;;;;;;9.00;8.00;;;;;;;;5057261;28;45498;-76
2022/05/09 02:22:20;;;;;;;;;8.00;6.75;;;;;;;;5056852;28;45380;-75
2022/05/09 02:24:45;;;;;;;;;5.00;5.00;;;;;;;;5058027;28;47330;-76
2022/05/09 02:27:11;;;;;;;;;12.00;8.25;;;;;;;;5057351;27;45631;-75
2022/05/09 02:29:39;;;;;;;;;12.25;8.00;;;;;;;;5058948;28;45431;-75
2022/05/09 02:32:05;;;;;;;;;10.00;8.25;;;;;;;;5061363;28;45537;-75
2022/05/09 02:34:30;;;;;;;;;8.50;7.75;;;;;;;;5059735;28;47159;-75
2022/05/09 02:36:55;;;;;;;;;12.00;8.50;;;;;;;;5059940;28;45448;-75
2022/05/09 02:39:21;;;;;;;;;8.50;6.75;;;;;;;;5058779;28;45360;-75
2022/05/09 02:41:46;;;;;;;;;8.75;8.75;;;;;;;;5056601;28;45384;-75
2022/05/09 02:44:12;;;;;;;;;8.50;8.00;;;;;;;;5061569;28;46986;-75
2022/05/09 02:46:40;;;;;;;;;9.50;9.50;;;;;;;;5059769;28;45403;-76
2022/05/09 02:49:05;;;;;;;;;9.25;8.00;;;;;;;;5059950;28;45371;-76
2022/05/09 02:51:30;;;;;;;;;14.00;11.25;;;;;;;;5059636;28;45562;-75
2022/05/09 02:53:56;;;;;;;;;16.50;12.50;;;;;;;;5055131;28;46222;-75
2022/05/09 02:56:21;;;;;;;;;9.75;9.25;;;;;;;;5061339;28;45380;-75
2022/05/09 02:58:47;;;;;;;;;10.50;8.00;;;;;;;;5059798;28;45383;-75
2022/05/09 03:01:12;;;;;;;;;9.75;9.25;;;;;;;;5059198;28;45302;-75
2022/05/09 03:06:21;;;;;;;;;12.00;9.75;;;;;;;;5058716;28;45542;-75
2022/05/09 03:08:47;;;;;;;;;11.25;8.75;;;;;;;;5056557;28;45379;-76
2022/05/09 03:11:12;;;;;;;;;10.25;8.00;;;;;;;;5061239;28;45377;-75
2022/05/09 03:13:38;;;;;;;;;9.00;9.00;;;;;;;;5058980;28;46799;-76
2022/05/09 03:16:04;;;;;;;;;10.50;10.50;;;;;;;;5059063;28;45429;-75
2022/05/09 03:18:30;;;;;;;;;12.50;12.50;;;;;;;;5059029;28;45478;-75
2022/05/09 03:20:55;;;;;;;;;14.50;12.50;;;;;;;;5055001;28;45587;-75
2022/05/09 03:23:20;;;;;;;;;10.25;9.25;;;;;;;;5061164;27;45941;-75
2022/05/09 03:25:46;;;;;;;;;11.25;11.25;;;;;;;;5058538;28;45312;-75
2022/05/09 03:28:13;;;;;;;;;13.00;11.75;;;;;;;;5058885;28;45460;-75
2022/05/09 03:30:38;;;;;;;;;13.25;13.00;;;;;;;;5059016;28;45530;-76
2022/05/09 03:33:04;;;;;;;;;12.00;11.50;;;;;;;;5055037;28;46110;-75
2022/05/09 03:35:30;;;;;;;;;16.50;13.00;;;;;;;;5059426;28;45353;-75
2022/05/09 03:37:55;;;;;;;;;14.00;11.75;;;;;;;;5057990;28;45417;-76
2022/05/09 03:40:21;;;;;;;;;12.25;12.00;;;;;;;;5058345;28;45577;-75
2022/05/09 03:42:47;;;;;;;;;10.00;10.00;;;;;;;;5058358;28;46957;-74
2022/05/09 03:45:12;;;;;;;;;13.00;12.25;;;;;;;;5038027;28;45397;-75
2022/05/09 03:47:38;;;;;;;;;9.25;7.75;;;;;;;;5039316;28;45241;-75
2022/05/09 03:50:03;;;;;;;;;16.75;16.25;;;;;;;;5060145;28;45280;-75
2022/05/09 03:52:28;;;;;;;;;15.75;14.25;;;;;;;;5057515;28;45418;-75
2022/05/09 03:54:55;;;;;;;;;14.00;12.75;;;;;;;;5058203;28;45299;-75
2022/05/09 03:57:21;;;;;;;;;13.75;10.00;;;;;;;;5057152;28;45439;-75
2022/05/09 03:59:46;;;;;;;;;12.00;12.00;;;;;;;;5055218;28;45328;-75
2022/05/09 04:02:11;;;;;;;;;17.00;12.75;;;;;;;;5060516;28;47305;-75
2022/05/09 04:04:36;;;;;;;;;16.50;13.50;;;;;;;;5058250;28;45351;-75
2022/05/09 04:07:02;;;;;;;;;13.50;12.00;;;;;;;;5058271;28;45272;-75
2022/05/09 04:09:27;;;;;;;;;15.00;13.75;;;;;;;;5057649;28;45426;-72
2022/05/09 04:11:52;;;;;;;;;14.50;14.25;;;;;;;;5054150;28;47378;-75
2022/05/09 04:16:49;;;;;;;;;15.25;14.75;;;;;;;;5060267;28;45729;-75
2022/05/09 04:17:05;;;;;;;;;12.50;12.00;;;;;;;;5058967;28;45406;-75
2022/05/09 04:19:31;;;;;;;;;15.00;13.25;;;;;;;;5057952;28;45526;-74
2022/05/09 04:21:57;;;;;;;;;15.75;14.00;;;;;;;;5057720;28;46124;-74
2022/05/09 04:24:22;;;;;;;;;20.25;16.00;;;;;;;;5056530;28;45874;-73
2022/05/09 04:26:47;;;;;;;;;14.00;14.00;;;;;;;;5054918;28;45610;-74
2022/05/09 04:29:12;;;;;;;;;15.00;13.25;;;;;;;;5048056;28;45424;-75
2022/05/09 04:31:38;;;;;;;;;15.00;14.00;;;;;;;;5038752;28;47253;-75
2022/05/09 04:34:03;;;;;;;;;15.00;13.50;;;;;;;;5042174;28;45369;-74
2022/05/09 04:36:29;;;;;;;;;17.00;15.25;;;;;;;;5049262;28;45354;-73
2022/05/09 04:38:54;;;;;;;;;16.25;13.75;;;;;;;;5048155;28;45460;-75
2022/05/09 04:41:22;;;;;;;;;14.00;11.25;;;;;;;;5048230;28;45791;-75
2022/05/09 04:43:47;;;;;;;;;14.00;13.75;;;;;;;;5049639;28;45280;-74
2022/05/09 04:46:12;;;;;;;;;39.00;35.75;;;;;;;;5050907;28;45304;-76
2022/05/09 04:48:40;;;;;;;;;21.75;20.75;;;;;;;;5049868;28;45189;-75
2022/05/09 04:51:05;;;;;;;;;26.50;21.75;;;;;;;;5047913;28;46962;-74
2022/05/09 04:53:31;;;;;;;;;18.00;17.00;;;;;;;;5047766;28;45446;-76
2022/05/09 04:55:56;;;;;;;;;21.00;17.00;;;;;;;;5048886;28;45568;-76
2022/05/09 04:58:21;;;;;;;;;18.50;15.00;;;;;;;;5067789;28;45321;-76
2022/05/09 05:00:47;;;;;;;;;29.50;24.00;;;;;;;;5049795;28;45392;-73
2022/05/09 05:03:12;;;;;;;;;20.50;19.50;;;;;;;;5029841;28;45439;-76
2022/05/09 05:05:38;;;;;;;;;16.75;16.75;;;;;;;;5056980;28;45466;-76
2022/05/09 05:08:03;;;;;;;;;19.00;17.25;;;;;;;;5056228;27;45444;-75
2022/05/09 05:10:30;;;;;;;;;22.25;19.75;;;;;;;;5052199;28;46255;-75
2022/05/09 05:12:58;;;;;;;;;19.00;17.25;;;;;;;;5065889;28;45602;-75
2022/05/09 05:15:23;;;;;;;;;17.25;13.50;;;;;;;;5055279;27;45297;-75
2022/05/09 05:17:49;;;;;;;;;22.75;21.00;;;;;;;;5056520;28;45300;-72
2022/05/09 05:20:15;;;;;;;;;11.75;11.00;;;;;;;;5056297;28;47139;-76
2022/05/09 05:22:41;;;;;;;;;19.50;14.75;;;;;;;;5053691;28;45452;-76
2022/05/09 05:25:07;;;;;;;;;24.25;19.25;;;;;;;;5056174;28;45343;-76
2022/05/09 05:27:32;;;;;;;;;22.00;17.00;;;;;;;;5055507;27;45530;-76
2022/05/09 05:29:59;;;;;;;;;19.75;16.50;;;;;;;;5056566;28;46216;-76
2022/05/09 05:32:26;;;;;;;;;16.75;15.25;;;;;;;;5055813;28;45295;-76
2022/05/09 05:34:52;;;;;;;;;22.25;15.25;;;;;;;;5047138;28;45368;-76
2022/05/09 05:37:18;;;;;;;;;19.50;16.75;;;;;;;;5046623;28;45499;-76
2022/05/09 05:39:44;;;;;;;;;18.00;15.75;;;;;;;;5046905;28;45429;-72
2022/05/09 05:42:09;;;;;;;;;14.75;14.75;;;;;;;;5050313;28;45569;-74
2022/05/09 05:44:35;;;;;;;;;21.00;19.50;;;;;;;;5049930;28;45375;-74
2022/05/09 05:47:07;;;;;;;;;19.00;16.50;;;;;;;;5047959;28;45372;-75
2022/05/09 05:49:33;;;;;;;;;16.00;15.00;;;;;;;;5046658;28;46126;-74
2022/05/09 05:52:02;;;;;;;;;21.75;18.00;;;;;;;;5045569;28;46051;-75
2022/05/09 05:54:28;;;;;;;;;28.25;22.00;;;;;;;;5038097;28;45548;-74
2022/05/09 05:56:53;;;;;;;;;23.50;19.75;;;;;;;;5046638;28;47783;-75
2022/05/09 05:59:18;;;;;;;;;17.00;15.50;;;;;;;;5051472;28;47289;-76
2022/05/09 06:01:43;;;;;;;;;17.00;14.50;;;;;;;;5053440;28;45355;-76
2022/05/09 06:04:08;;;;;;;;;23.50;20.25;;;;;;;;5053303;28;45498;-76
2022/05/09 06:06:34;;;;;;;;;18.25;14.25;;;;;;;;5055809;28;45626;-76
2022/05/09 06:08:59;;;;;;;;;16.50;14.25;;;;;;;;5053182;28;46077;-76
2022/05/09 06:11:24;;;;;;;;;18.75;18.75;;;;;;;;5055124;28;45569;-76
2022/05/09 06:13:49;;;;;;;;;21.75;19.50;;;;;;;;5052464;28;45561;-76
2022/05/09 06:16:14;;;;;;;;;25.25;22.50;;;;;;;;5052385;28;45442;-74
2022/05/09 06:18:40;;;;;;;;;24.75;21.50;;;;;;;;5054128;28;47062;-74
2022/05/09 06:21:05;;;;;;;;;18.25;16.50;;;;;;;;5051834;28;45461;-75
2022/05/09 06:23:31;;;;;;;;;20.75;19.25;;;;;;;;5055866;28;45375;-75
2022/05/09 06:25:56;;;;;;;;;23.00;19.50;;;;;;;;5048208;28;45710;-74
2022/05/09 06:28:23;;;;;;;;;20.25;18.25;;;;;;;;5052828;28;46230;-76
2022/05/09 06:30:48;;;;;;;;;17.25;16.50;;;;;;;;5040681;28;45463;-75
2022/05/09 06:33:19;;;;;;;;;17.75;15.00;;;;;;;;5053670;28;45486;-74
2022/05/09 06:35:44;;;;;;;;;20.25;19.00;;;;;;;;5049788;28;45394;-75
2022/05/09 06:38:14;;;;;;;;;23.00;20.25;;;;;;;;5051526;28;47041;-77
2022/05/09 06:40:39;;;;;;;;;18.50;17.00;;;;;;;;5053146;28;45484;-77
2022/05/09 06:43:06;;;;;;;;;19.00;18.00;;;;;;;;5055175;28;45407;-75
2022/05/09 06:45:32;;;;;;;;;19.50;19.50;;;;;;;;5050699;28;45383;-79
2022/05/09 06:47:57;;;;;;;;;23.50;20.75;;;;;;;;5048889;28;45328;-77
2022/05/09 06:50:24;;;;;;;;;23.75;19.25;;;;;;;;5033073;28;45435;-78
2022/05/09 06:52:49;;;;;;;;;20.25;18.75;;;;;;;;5050196;28;45502;-78
2022/05/09 06:55:15;;;;;;;;;18.50;17.50;;;;;;;;5051746;28;45628;-77
2022/05/09 06:57:41;;;;;;;;;18.50;15.75;;;;;;;;5051753;28;46249;-77
2022/05/09 07:00:08;;;;;;;;;23.00;20.50;;;;;;;;5051809;28;45324;-74
2022/05/09 07:02:33;;;;;;;;;19.00;14.00;;;;;;;;5048660;28;45311;-74
2022/05/09 07:04:59;;;;;;;;;16.75;16.25;;;;;;;;5054193;28;45337;-75
2022/05/09 07:07:24;;;;;;;;;18.50;17.75;;;;;;;;5047210;28;45978;-76
2022/05/09 07:09:50;;;;;;;;;21.00;19.00;;;;;;;;5047969;28;45239;-75
2022/05/09 07:12:15;;;;;;;;;16.00;14.25;;;;;;;;5051036;28;45361;-75
2022/05/09 07:14:41;;;;;;;;;18.75;18.00;;;;;;;;5033763;28;45370;-75
2022/05/09 07:17:06;;;;;;;;;21.25;17.75;;;;;;;;5051344;28;45483;-75
2022/05/09 07:19:32;;;;;;;;;20.50;18.25;;;;;;;;5057283;27;45415;-78
2022/05/09 07:21:57;;;;;;;;;20.00;19.00;;;;;;;;5056481;28;45403;-77
2022/05/09 07:24:22;;;;;;;;;19.75;17.50;;;;;;;;5061047;28;45453;-77
2022/05/09 07:26:47;;;;;;;;;16.75;15.25;;;;;;;;5053654;28;47308;-77
2022/05/09 07:29:13;;;;;;;;;30.00;24.75;;;;;;;;5050448;28;45473;-77
2022/05/09 07:31:38;;;;;;;;;18.25;15.00;;;;;;;;5047637;28;45474;-76
2022/05/09 07:34:03;;;;;;;;;18.75;18.00;;;;;;;;5042410;28;45482;-77
2022/05/09 07:36:28;;;;;;;;;24.50;18.75;;;;;;;;5043344;28;46162;-77
2022/05/09 07:38:54;;;;;;;;;32.00;27.75;;;;;;;;5048553;28;45444;-77
2022/05/09 07:41:19;;;;;;;;;23.25;21.75;;;;;;;;5054870;28;45263;-77
2022/05/09 07:43:44;;;;;;;;;23.25;17.50;;;;;;;;5038529;28;45454;-76
2022/05/09 07:46:09;;;;;;;;;25.00;20.75;;;;;;;;5040076;28;46090;-75
2022/05/09 07:48:34;;;;;;;;;23.00;19.50;;;;;;;;5039946;28;46266;-75
2022/05/09 07:51:00;;;;;;;;;20.25;18.50;;;;;;;;5040231;28;45395;-77
2022/05/09 07:53:30;;;;;;;;;25.25;23.50;;;;;;;;5050363;28;45566;-75
2022/05/09 07:55:55;;;;;;;;;25.00;20.00;;;;;;;;5047643;28;45616;-76
2022/05/09 07:58:21;;;;;;;;;21.50;19.50;;;;;;;;5043123;28;45629;-76
2022/05/09 08:00:46;;;;;;;;;24.25;20.75;;;;;;;;5048859;28;45567;-76
2022/05/09 08:03:19;;;;;;;;;20.00;19.50;;;;;;;;5049722;28;45712;-76
2022/05/09 08:05:45;;;;;;;;;19.25;17.25;;;;;;;;5041552;28;46118;-76
2022/05/09 08:08:10;;;;;;;;;21.75;20.50;;;;;;;;5039270;28;45345;-76
2022/05/09 08:10:36;;;;;;;;;22.25;18.50;;;;;;;;5045623;28;45530;-76
2022/05/09 08:13:02;;;;;;;;;24.50;20.75;;;;;;;;5038364;28;45415;-76
2022/05/09 08:15:28;;;;;;;;;20.00;19.25;;;;;;;;5055839;27;45345;-77
2022/05/09 08:17:54;;;;;;;;;18.00;13.50;;;;;;;;5051455;28;45440;-76
2022/05/09 08:20:19;;;;;;;;;19.75;17.00;;;;;;;;5050429;28;45507;-77
2022/05/09 08:22:45;;;;;;;;;21.50;18.75;;;;;;;;5048745;28;45456;-76
2022/05/09 08:25:11;;;;;;;;;19.00;19.00;;;;;;;;5050344;28;46151;-76
2022/05/09 08:27:36;;;;;;;;;18.75;16.75;;;;;;;;5049444;28;45546;-77
2022/05/09 08:30:02;;;;;;;;;28.50;24.75;;;;;;;;5047197;28;45700;-77
2022/05/09 08:32:27;;;;;;;;;23.00;21.50;;;;;;;;5028813;28;45299;-76
2022/05/09 08:34:53;;;;;;;;;21.75;20.75;;;;;;;;5048783;28;46915;-76
2022/05/09 08:37:19;;;;;;;;;16.50;16.25;;;;;;;;5034822;28;45651;-75
2022/05/09 08:39:44;;;;;;;;;24.50;23.50;;;;;;;;5038474;28;45401;-76
2022/05/09 08:42:14;;;;;;;;;20.50;18.25;;;;;;;;5038684;28;45525;-76
2022/05/09 08:44:57;;;;;;;;;25.00;22.25;;;;;;;;5047809;28;45501;-76
2022/05/09 08:47:44;;;;;;;;;20.50;18.75;;;;;;;;5056129;28;45371;-77
2022/05/09 08:50:16;;;;;;;;;22.25;21.50;;;;;;;;5054924;27;45563;-75
2022/05/09 08:52:49;;;;;;;;;24.00;20.00;;;;;;;;5053519;28;45558;-77
2022/05/09 08:55:17;;;;;;;;;30.50;28.50;;;;;;;;5041803;28;47091;-77
2022/05/09 08:57:45;;;;;;;;;23.00;20.50;;;;;;;;5040713;28;45492;-77
2022/05/09 09:00:15;;;;;;;;;31.75;27.25;;;;;;;;5038697;28;45471;-77
2022/05/09 09:02:43;;;;;;;;;28.50;22.75;;;;;;;;5043526;28;47621;-76
2022/05/09 09:05:11;;;;;;;;;26.00;22.75;;;;;;;;5041628;28;46379;-75
2022/05/09 09:07:44;;;;;;;;;20.75;19.00;;;;;;;;5039776;28;45488;-76
2022/05/09 09:10:17;;;;;;;;;16.50;11.50;;;;;;;;5045743;28;46052;-77
2022/05/09 09:12:52;;;;;;;;;26.50;21.50;;;;;;;;5042933;28;45515;-77
2022/05/09 09:15:17;;;;;;;;;25.25;22.00;;;;;;;;5043918;28;46117;-76
2022/05/09 09:17:48;;;;;;;;;25.75;22.25;;;;;;;;5044432;28;45373;-77
2022/05/09 09:20:18;;;;;;;;;23.00;20.00;;;;;;;;5047427;28;45454;-74
2022/05/09 09:22:55;;;;;;;;;25.50;23.00;;;;;;;;5049809;28;45403;-77
2022/05/09 09:25:36;;;;;;;;;24.00;20.75;;;;;;;;5047201;28;45522;-76
2022/05/09 09:28:01;;;;;;;;;23.25;20.25;;;;;;;;5036034;28;45710;-75
2022/05/09 09:30:27;;;;;;;;;21.25;20.25;;;;;;;;5039545;28;45503;-77
2022/05/09 09:32:55;;;;;;;;;29.00;25.25;;;;;;;;5039224;28;45645;-76
2022/05/09 09:35:24;;;;;;;;;24.50;21.75;;;;;;;;5042659;28;47571;-75
2022/05/09 09:37:52;;;;;;;;;16.75;15.25;;;;;;;;5050174;28;45545;-76
2022/05/09 09:40:17;;;;;;;;;23.25;18.25;;;;;;;;5045198;28;45543;-76
2022/05/09 09:42:42;;;;;;;;;22.00;19.00;;;;;;;;5051361;28;45730;-76
2022/05/09 09:45:26;;;;;;;;;29.25;25.75;;;;;;;;5049725;28;47522;-75
2022/05/09 09:48:10;;;;;;;;;21.00;20.75;;;;;;;;5047437;28;45503;-76
2022/05/09 09:50:36;;;;;;;;;21.50;18.75;;;;;;;;5050586;28;45779;-75
2022/05/09 09:53:02;;;;;;;;;23.25;19.75;;;;;;;;5041730;28;45375;-75
2022/05/09 09:55:32;;;;;;;;;20.50;19.00;;;;;;;;5037875;28;46940;-75
2022/05/09 09:57:59;;;;;;;;;24.00;21.75;;;;;;;;5052660;28;45329;-75
2022/05/09 10:00:24;;;;;;;;;23.50;21.50;;;;;;;;5042975;28;45540;-75
2022/05/09 10:02:50;;;;;;;;;21.25;20.75;;;;;;;;5041693;28;45456;-75
2022/05/09 10:05:17;;;;;;;;;24.75;21.75;;;;;;;;5038277;28;45477;-75
2022/05/09 10:07:45;;;;;;;;;23.75;20.50;;;;;;;;5040715;28;45384;-74
2022/05/09 10:10:16;;;;;;;;;20.25;20.25;;;;;;;;5053240;28;45234;-75
2022/05/09 10:12:44;;;;;;;;;24.00;21.25;;;;;;;;5045076;28;45455;-75
2022/05/09 10:15:21;;;;;;;;;22.25;20.75;;;;;;;;5050046;28;46190;-74
2022/05/09 10:17:46;;;;;;;;;21.75;20.50;;;;;;;;5049228;28;45681;-75
2022/05/09 10:20:29;;;;;;;;;21.75;19.25;;;;;;;;5051570;28;45387;-74
2022/05/09 10:25:57;;;;;;;;;22.50;21.50;;;;;;;;5040120;28;45822;-75
2022/05/09 10:28:25;;;;;;;;;20.00;18.75;;;;;;;;5058800;27;45619;-73
2022/05/09 10:30:54;;;;;;;;;18.75;17.25;;;;;;;;5056377;28;45586;-75
2022/05/09 10:33:33;;;;;;;;;19.75;18.50;;;;;;;;5043508;28;49748;-75
2022/05/09 10:36:01;;;;;;;;;17.50;15.75;;;;;;;;5045426;28;46990;-76
2022/05/09 10:38:26;;;;;;;;;22.00;19.75;;;;;;;;5053361;28;45494;-73
2022/05/09 10:41:03;;;;;;;;;20.75;18.25;;;;;;;;5047082;27;45471;-75
2022/05/09 10:43:34;;;;;;;;;20.00;19.25;;;;;;;;5038839;28;45482;-74
2022/05/09 10:46:03;;;;;;;;;20.75;18.25;;;;;;;;5059143;28;45430;-75
2022/05/09 10:48:36;;;;;;;;;17.75;17.25;;;;;;;;5057445;28;45277;-75
2022/05/09 10:51:18;;;;;;;;;20.00;18.75;;;;;;;;5058129;28;45387;-75
2022/05/09 10:53:53;;;;;;;;;20.75;20.00;;;;;;;;5058289;28;45610;-75
2022/05/09 10:56:18;;;;;;;;;17.00;15.75;;;;;;;;5056457;28;47327;-75
2022/05/09 10:58:53;;;;;;;;;21.50;21.50;;;;;;;;5069977;28;45486;-75
2022/05/09 11:01:25;;;;;;;;;21.75;17.50;;;;;;;;5055210;28;45487;-75
2022/05/09 11:03:52;;;;;;;;;22.25;20.75;;;;;;;;5056992;28;45610;-75
2022/05/09 11:06:17;;;;;;;;;19.00;18.00;;;;;;;;5053805;28;47049;-74
2022/05/09 11:08:43;;;;;;;;;22.50;17.75;;;;;;;;5050619;28;45330;-74
2022/05/09 11:11:14;;;;;;;;;18.50;18.50;;;;;;;;5056092;28;45461;-74
2022/05/09 11:13:53;;;;;;;;;23.00;19.25;;;;;;;;5054350;28;45440;-74
2022/05/09 11:16:45;;;;;;;;;16.25;15.25;;;;;;;;5053785;28;45363;-74
2022/05/09 11:19:29;;;;;;;;;17.25;16.75;;;;;;;;5054527;28;45437;-74
2022/05/09 11:21:59;;;;;;;;;23.00;17.50;;;;;;;;5059255;28;45243;-75
2022/05/09 11:24:39;;;;;;;;;23.25;20.25;;;;;;;;5051324;28;45641;-75
2022/05/09 11:27:17;;;;;;;;;22.25;21.00;;;;;;;;5048228;27;47280;-75
2022/05/09 11:29:54;;;;;;;;;19.25;19.00;;;;;;;;5037797;28;46701;-75
2022/05/09 11:32:36;;;;;;;;;15.50;15.50;;;;;;;;5042079;28;45542;-74
2022/05/09 11:35:21;;;;;;;;;22.00;21.25;;;;;;;;5043627;28;45654;-74
2022/05/09 11:38:03;;;;;;;;;20.75;19.75;;;;;;;;5044441;27;47205;-73
2022/05/09 11:40:31;;;;;;;;;17.50;16.75;;;;;;;;5046026;28;45479;-74
2022/05/09 11:46:04;;;;;;;;;26.50;21.00;;;;;;;;5041876;28;45538;-75
2022/05/09 11:48:40;;;;;;;;;22.25;22.25;;;;;;;;5047570;28;45457;-73
2022/05/09 11:51:19;;;;;;;;;20.50;18.25;;;;;;;;5030487;28;45510;-74
2022/05/09 11:53:48;;;;;;;;;21.75;20.00;;;;;;;;5039176;28;45500;-75
2022/05/09 11:56:13;;;;;;;;;17.50;17.00;;;;;;;;5038278;28;45471;-73
2022/05/09 11:58:41;;;;;;;;;19.25;18.75;;;;;;;;5047401;28;45517;-74
2022/05/09 12:01:07;;;;;;;;;17.25;16.25;;;;;;;;5035692;28;45265;-73
2022/05/09 12:03:51;;;;;;;;;21.25;18.00;;;;;;;;5039773;28;45454;-76
2022/05/09 12:06:30;;;;;;;;;30.00;28.25;;;;;;;;5038904;28;45435;-75
2022/05/09 12:08:56;;;;;;;;;19.75;17.25;;;;;;;;5038758;28;46282;-74
2022/05/09 12:11:29;;;;;;;;;19.50;19.25;;;;;;;;5042132;28;45674;-74
2022/05/09 12:13:57;;;;;;;;;19.50;18.50;;;;;;;;5039079;28;45257;-73
2022/05/09 12:16:37;;;;;;;;;18.00;17.50;;;;;;;;5036290;28;45302;-73
2022/05/09 12:19:04;;;;;;;;;23.75;19.25;;;;;;;;5050115;28;46955;-72
2022/05/09 12:21:34;;;;;;;;;21.25;17.50;;;;;;;;5042172;28;45379;-74
2022/05/09 12:24:14;;;;;;;;;19.00;17.00;;;;;;;;5047187;28;45572;-74
2022/05/09 12:26:42;;;;;;;;;22.75;19.75;;;;;;;;5040165;28;45348;-76
2022/05/09 12:29:17;;;;;;;;;25.50;22.75;;;;;;;;5041687;28;46151;-74
2022/05/09 12:31:42;;;;;;;;;17.50;14.75;;;;;;;;5043402;28;45511;-73
2022/05/09 12:34:10;;;;;;;;;19.50;16.75;;;;;;;;5045433;28;45629;-74
2022/05/09 12:36:36;;;;;;;;;17.75;17.25;;;;;;;;5063543;28;45545;-75
2022/05/09 12:39:09;;;;;;;;;19.50;18.00;;;;;;;;5051188;28;46270;-74
2022/05/09 12:41:54;;;;;;;;;13.25;13.25;;;;;;;;5049418;28;45515;-75
2022/05/09 12:44:25;;;;;;;;;19.75;16.50;;;;;;;;5055607;28;45386;-74
2022/05/09 12:46:55;;;;;;;;;19.25;15.00;;;;;;;;5043066;28;45459;-75
2022/05/09 12:49:22;;;;;;;;;16.50;16.50;;;;;;;;5050788;28;46187;-73
2022/05/09 12:51:49;;;;;;;;;13.50;11.75;;;;;;;;5056138;28;45414;-74
2022/05/09 12:54:16;;;;;;;;;17.75;16.00;;;;;;;;5056051;28;45475;-73
2022/05/09 12:56:49;;;;;;;;;15.00;14.00;;;;;;;;5053482;27;45563;-73
2022/05/09 12:59:14;;;;;;;;;21.25;20.50;;;;;;;;5055636;28;46566;-74
2022/05/09 13:01:44;;;;;;;;;17.75;16.25;;;;;;;;5052712;28;45458;-74
2022/05/09 13:04:24;;;;;;;;;17.00;16.25;;;;;;;;5055800;28;45446;-74
2022/05/09 13:06:50;;;;;;;;;20.50;19.25;;;;;;;;5045442;28;45459;-72
2022/05/09 13:09:23;;;;;;;;;14.75;13.75;;;;;;;;5052985;28;47362;-72
2022/05/09 13:11:50;;;;;;;;;24.25;22.75;;;;;;;;5038011;28;45397;-72
2022/05/09 13:14:22;;;;;;;;;16.25;15.00;;;;;;;;5056247;28;45375;-74
2022/05/09 13:16:58;;;;;;;;;15.50;15.25;;;;;;;;5060424;28;45694;-74
2022/05/09 13:19:24;;;;;;;;;21.25;21.25;;;;;;;;5053395;28;46222;-73
2022/05/09 13:21:50;;;;;;;;;19.75;17.00;;;;;;;;5043262;28;45419;-75
2022/05/09 13:24:17;;;;;;;;;13.25;13.25;;;;;;;;5049539;28;45486;-75
2022/05/09 13:26:48;;;;;;;;;22.00;21.50;;;;;;;;5058571;28;45538;-74
2022/05/09 13:29:20;;;;;;;;;19.25;16.50;;;;;;;;5058451;28;45554;-74
2022/05/09 13:31:46;;;;;;;;;22.75;20.25;;;;;;;;5052333;28;47506;-75
2022/05/09 13:34:23;;;;;;;;;12.50;12.50;;;;;;;;5057867;28;45472;-73
2022/05/09 13:36:49;;;;;;;;;25.25;23.50;;;;;;;;5059225;28;45347;-72
2022/05/09 13:39:29;;;;;;;;;19.00;18.25;;;;;;;;5057445;28;45593;-72
2022/05/09 13:41:55;;;;;;;;;18.75;17.75;;;;;;;;5057473;28;45396;-74
2022/05/09 13:44:21;;;;;;;;;18.75;16.75;;;;;;;;5040155;28;45470;-74
2022/05/09 13:46:49;;;;;;;;;16.25;16.25;;;;;;;;5058266;27;45370;-74
2022/05/09 13:49:15;;;;;;;;;16.25;15.25;;;;;;;;5057281;28;47403;-74
2022/05/09 13:51:41;;;;;;;;;15.50;15.50;;;;;;;;5059216;28;45488;-74
2022/05/09 13:54:08;;;;;;;;;19.00;17.00;;;;;;;;5055947;28;45428;-76
2022/05/09 13:56:35;;;;;;;;;15.50;15.50;;;;;;;;5053712;27;45427;-74
2022/05/09 13:59:02;;;;;;;;;20.00;20.00;;;;;;;;5053336;28;46947;-73
2022/05/09 14:01:35;;;;;;;;;16.75;16.75;;;;;;;;5054337;28;45580;-74
2022/05/09 14:04:00;;;;;;;;;26.50;21.00;;;;;;;;5053426;28;45457;-74
2022/05/09 14:06:28;;;;;;;;;22.25;21.00;;;;;;;;5057169;28;45354;-74
2022/05/09 14:09:03;;;;;;;;;21.00;19.00;;;;;;;;5056575;28;46063;-74
2022/05/09 14:11:34;;;;;;;;;19.75;19.50;;;;;;;;5055131;28;45436;-73
2022/05/09 14:13:59;;;;;;;;;16.75;15.50;;;;;;;;5056601;28;45482;-73
2022/05/09 14:16:29;;;;;;;;;25.25;22.75;;;;;;;;5052452;28;45475;-74
2022/05/09 14:19:03;;;;;;;;;15.00;15.00;;;;;;;;5043107;28;46413;-73
2022/05/09 14:21:34;;;;;;;;;14.75;14.75;;;;;;;;5045500;28;45499;-74
2022/05/09 14:24:01;;;;;;;;;14.50;13.50;;;;;;;;5037818;28;45293;-73
2022/05/09 14:29:38;;;;;;;;;18.00;13.00;;;;;;;;5041207;28;45500;-73
2022/05/09 14:32:05;;;;;;;;;14.00;13.00;;;;;;;;5056224;28;45526;-74
2022/05/09 14:34:32;;;;;;;;;13.00;10.75;;;;;;;;5047443;27;45348;-73
2022/05/09 14:37:27;;;;;;;;;14.00;14.00;;;;;;;;5041799;28;45509;-73
2022/05/09 14:40:04;;;;;;;;;11.75;11.75;;;;;;;;5030673;28;45396;-72
2022/05/09 14:42:33;;;;;;;;;16.25;14.25;;;;;;;;5054529;27;45482;-74
2022/05/09 14:45:07;;;;;;;;;16.75;15.00;;;;;;;;5053149;28;46139;-73
2022/05/09 14:47:38;;;;;;;;;12.25;12.25;;;;;;;;5046892;28;45668;-74
2022/05/09 14:50:08;;;;;;;;;15.00;13.75;;;;;;;;5051113;28;46414;-75
2022/05/09 14:52:33;;;;;;;;;17.50;16.00;;;;;;;;5048871;28;45557;-74
2022/05/09 14:57:49;;;;;;;;;13.50;11.50;;;;;;;;5051517;28;45537;-74
2022/05/09 15:00:14;;;;;;;;;15.25;14.25;;;;;;;;5051012;28;47157;-73
2022/05/09 15:02:54;;;;;;;;;16.50;14.00;;;;;;;;5036306;28;45459;-74
2022/05/09 15:05:19;;;;;;;;;16.75;16.00;;;;;;;;5051046;28;45289;-74
2022/05/09 15:07:44;;;;;;;;;13.75;13.00;;;;;;;;5043085;28;45467;-74
2022/05/09 15:10:09;;;;;;;;;14.25;12.75;;;;;;;;5039606;28;46112;-73
2022/05/09 15:12:37;;;;;;;;;14.75;12.75;;;;;;;;5051070;28;45384;-74